sensor_id;sensor_type;location;lat;lon;timestamp;temperature;humidity
26270;DHT22;15937;50.612;6.656;2023-08-12T00:00:21;22.00;99.90
26270;DHT22;15937;50.612;6.656;2023-08-12T00:04:23;22.00;99.90
26270;DHT22;15937;50.612;6.656;2023-08-12T00:08:25;21.90;99.90
26270;DHT22;15937;50.612;6.656;2023-08-12T00:12:26;21.90;99.90
26270;DHT22;15937;50.612;6.656;2023-08-12T00:16:28;21.80;99.90
26270;DHT22;15937;50.612;6.656;2023-08-12T00:20:30;21.60;99.90
26270;DHT22;15937;50.612;6.656;2023-08-12T00:24:32;21.70;99.90
26270;DHT22;15937;50.612;6.656;2023-08-12T00:28:34;21.90;99.90
26270;DHT22;15937;50.612;6.656;2023-08-12T00:32:35;21.70;99.90
26270;DHT22;15937;50.612;6.656;2023-08-12T00:36:37;21.70;99.90
26270;DHT22;15937;50.612;6.656;2023-08-12T00:40:39;21.70;99.90
26270;DHT22;15937;50.612;6.656;2023-08-12T00:44:41;21.60;99.90
26270;DHT22;15937;50.612;6.656;2023-08-12T00:48:42;21.50;99.90
26270;DHT22;15937;50.612;6.656;2023-08-12T00:52:48;21.60;99.90
26270;DHT22;15937;50.612;6.656;2023-08-12T00:56:50;21.50;99.90
26270;DHT22;15937;50.612;6.656;2023-08-12T01:00:55;21.60;99.90
26270;DHT22;15937;50.612;6.656;2023-08-12T01:04:58;21.60;99.90
26270;DHT22;15937;50.612;6.656;2023-08-12T01:09:00;21.50;99.90
26270;DHT22;15937;50.612;6.656;2023-08-12T01:13:26;21.40;99.90
26270;DHT22;15937;50.612;6.656;2023-08-12T01:17:29;21.50;99.90
26270;DHT22;15937;50.612;6.656;2023-08-12T01:21:33;21.50;99.90
26270;DHT22;15937;50.612;6.656;2023-08-12T01:25:43;21.40;99.90
26270;DHT22;15937;50.612;6.656;2023-08-12T01:29:46;21.40;99.90
26270;DHT22;15937;50.612;6.656;2023-08-12T01:34:12;21.50;99.90
26270;DHT22;15937;50.612;6.656;2023-08-12T01:38:17;21.40;99.90
26270;DHT22;15937;50.612;6.656;2023-08-12T01:42:21;21.30;99.90
26270;DHT22;15937;50.612;6.656;2023-08-12T01:46:23;21.30;99.90
26270;DHT22;15937;50.612;6.656;2023-08-12T01:50:25;21.40;99.90
26270;DHT22;15937;50.612;6.656;2023-08-12T01:54:27;21.40;99.90
26270;DHT22;15937;50.612;6.656;2023-08-12T01:58:34;21.40;99.90
26270;DHT22;15937;50.612;6.656;2023-08-12T02:02:36;21.40;99.90
26270;DHT22;15937;50.612;6.656;2023-08-12T02:06:38;21.40;99.90
26270;DHT22;15937;50.612;6.656;2023-08-12T02:10:39;21.10;99.90
26270;DHT22;15937;50.612;6.656;2023-08-12T02:14:41;21.10;99.90
26270;DHT22;15937;50.612;6.656;2023-08-12T02:18:43;21.00;99.90
26270;DHT22;15937;50.612;6.656;2023-08-12T02:22:47;21.00;99.90
26270;DHT22;15937;50.612;6.656;2023-08-12T02:26:49;21.00;99.90
26270;DHT22;15937;50.612;6.656;2023-08-12T02:30:55;21.10;99.90
26270;DHT22;15937;50.612;6.656;2023-08-12T02:34:57;21.00;99.90
26270;DHT22;15937;50.612;6.656;2023-08-12T02:38:59;21.00;99.90
26270;DHT22;15937;50.612;6.656;2023-08-12T02:43:01;21.00;99.90
26270;DHT22;15937;50.612;6.656;2023-08-12T02:47:03;21.00;99.90
26270;DHT22;15937;50.612;6.656;2023-08-12T02:51:04;21.10;99.90
26270;DHT22;15937;50.612;6.656;2023-08-12T02:55:07;21.00;99.90
26270;DHT22;15937;50.612;6.656;2023-08-12T02:59:08;21.00;99.90
26270;DHT22;15937;50.612;6.656;2023-08-12T03:03:10;21.00;99.90
26270;DHT22;15937;50.612;6.656;2023-08-12T03:07:12;20.90;99.90
26270;DHT22;15937;50.612;6.656;2023-08-12T03:11:14;20.80;99.90
26270;DHT22;15937;50.612;6.656;2023-08-12T03:15:17;20.80;99.90
26270;DHT22;15937;50.612;6.656;2023-08-12T03:19:19;20.70;99.90
26270;DHT22;15937;50.612;6.656;2023-08-12T03:23:20;20.70;99.90
26270;DHT22;15937;50.612;6.656;2023-08-12T03:27:22;20.60;99.90
26270;DHT22;15937;50.612;6.656;2023-08-12T03:31:24;20.50;99.90
26270;DHT22;15937;50.612;6.656;2023-08-12T03:35:26;20.50;99.90
26270;DHT22;15937;50.612;6.656;2023-08-12T03:39:27;20.50;99.90
26270;DHT22;15937;50.612;6.656;2023-08-12T03:43:29;20.40;99.90
26270;DHT22;15937;50.612;6.656;2023-08-12T03:47:31;20.50;99.90
26270;DHT22;15937;50.612;6.656;2023-08-12T03:51:33;20.30;99.90
26270;DHT22;15937;50.612;6.656;2023-08-12T03:55:34;20.30;99.90
26270;DHT22;15937;50.612;6.656;2023-08-12T03:59:36;20.30;99.90
26270;DHT22;15937;50.612;6.656;2023-08-12T04:03:38;20.20;99.90
26270;DHT22;15937;50.612;6.656;2023-08-12T04:07:40;20.30;99.90
26270;DHT22;15937;50.612;6.656;2023-08-12T04:11:42;20.20;99.90
26270;DHT22;15937;50.612;6.656;2023-08-12T04:15:49;20.20;99.90
26270;DHT22;15937;50.612;6.656;2023-08-12T04:19:51;20.20;99.90
26270;DHT22;15937;50.612;6.656;2023-08-12T04:23:53;20.00;99.90
26270;DHT22;15937;50.612;6.656;2023-08-12T04:27:55;20.10;99.90
26270;DHT22;15937;50.612;6.656;2023-08-12T04:31:56;20.00;99.90
26270;DHT22;15937;50.612;6.656;2023-08-12T04:35:58;20.00;99.90
26270;DHT22;15937;50.612;6.656;2023-08-12T04:40:00;20.10;99.90
26270;DHT22;15937;50.612;6.656;2023-08-12T04:44:02;20.00;99.90
26270;DHT22;15937;50.612;6.656;2023-08-12T04:48:05;20.00;99.90
26270;DHT22;15937;50.612;6.656;2023-08-12T04:52:07;20.00;99.90
26270;DHT22;15937;50.612;6.656;2023-08-12T04:56:09;19.90;99.90
26270;DHT22;15937;50.612;6.656;2023-08-12T05:00:12;20.00;99.90
26270;DHT22;15937;50.612;6.656;2023-08-12T05:04:15;20.00;99.90
26270;DHT22;15937;50.612;6.656;2023-08-12T05:08:16;19.90;99.90
26270;DHT22;15937;50.612;6.656;2023-08-12T05:12:18;19.90;99.90
26270;DHT22;15937;50.612;6.656;2023-08-12T05:16:20;19.80;99.90
26270;DHT22;15937;50.612;6.656;2023-08-12T05:29:30;19.70;99.90
26270;DHT22;15937;50.612;6.656;2023-08-12T05:33:52;19.70;99.90
26270;DHT22;15937;50.612;6.656;2023-08-12T05:38:19;19.60;99.90
26270;DHT22;15937;50.612;6.656;2023-08-12T05:42:25;19.40;99.90
26270;DHT22;15937;50.612;6.656;2023-08-12T05:46:30;19.30;99.90
26270;DHT22;15937;50.612;6.656;2023-08-12T05:50:32;19.40;99.90
26270;DHT22;15937;50.612;6.656;2023-08-12T05:54:34;19.20;99.90
26270;DHT22;15937;50.612;6.656;2023-08-12T05:58:39;19.30;99.90
26270;DHT22;15937;50.612;6.656;2023-08-12T06:02:41;19.30;99.90
26270;DHT22;15937;50.612;6.656;2023-08-12T06:06:43;19.40;99.90
26270;DHT22;15937;50.612;6.656;2023-08-12T06:10:45;19.40;99.90
26270;DHT22;15937;50.612;6.656;2023-08-12T06:14:46;19.50;99.90
26270;DHT22;15937;50.612;6.656;2023-08-12T06:18:48;19.50;99.90
26270;DHT22;15937;50.612;6.656;2023-08-12T06:22:50;19.50;99.90
26270;DHT22;15937;50.612;6.656;2023-08-12T06:26:52;19.40;99.90
26270;DHT22;15937;50.612;6.656;2023-08-12T06:30:55;19.50;99.90
26270;DHT22;15937;50.612;6.656;2023-08-12T06:34:56;19.70;99.90
26270;DHT22;15937;50.612;6.656;2023-08-12T06:38:58;19.70;99.90
26270;DHT22;15937;50.612;6.656;2023-08-12T06:43:00;19.70;99.90
26270;DHT22;15937;50.612;6.656;2023-08-12T06:47:02;19.70;99.90
26270;DHT22;15937;50.612;6.656;2023-08-12T06:51:04;19.70;99.90
26270;DHT22;15937;50.612;6.656;2023-08-12T06:55:17;19.70;99.90
26270;DHT22;15937;50.612;6.656;2023-08-12T06:59:25;19.80;99.90
26270;DHT22;15937;50.612;6.656;2023-08-12T07:03:27;19.70;99.90
26270;DHT22;15937;50.612;6.656;2023-08-12T07:07:37;19.80;99.90
26270;DHT22;15937;50.612;6.656;2023-08-12T07:11:40;19.80;99.90
26270;DHT22;15937;50.612;6.656;2023-08-12T07:15:41;19.80;99.90
26270;DHT22;15937;50.612;6.656;2023-08-12T07:19:43;19.90;99.90
26270;DHT22;15937;50.612;6.656;2023-08-12T07:23:45;20.00;99.90
26270;DHT22;15937;50.612;6.656;2023-08-12T07:28:07;20.20;99.90
26270;DHT22;15937;50.612;6.656;2023-08-12T07:32:09;20.20;99.90
26270;DHT22;15937;50.612;6.656;2023-08-12T07:36:11;20.30;99.90
26270;DHT22;15937;50.612;6.656;2023-08-12T07:40:13;20.20;99.90
26270;DHT22;15937;50.612;6.656;2023-08-12T07:44:15;20.20;99.90
26270;DHT22;15937;50.612;6.656;2023-08-12T07:48:16;20.50;99.90
26270;DHT22;15937;50.612;6.656;2023-08-12T07:52:18;20.30;99.90
26270;DHT22;15937;50.612;6.656;2023-08-12T07:56:20;20.50;99.90
26270;DHT22;15937;50.612;6.656;2023-08-12T08:00:21;20.40;99.90
26270;DHT22;15937;50.612;6.656;2023-08-12T08:04:23;20.50;99.90
26270;DHT22;15937;50.612;6.656;2023-08-12T08:08:25;20.40;99.90
26270;DHT22;15937;50.612;6.656;2023-08-12T08:12:27;20.50;99.90
26270;DHT22;15937;50.612;6.656;2023-08-12T08:16:29;20.50;99.90
26270;DHT22;15937;50.612;6.656;2023-08-12T08:20:31;20.60;99.90
26270;DHT22;15937;50.612;6.656;2023-08-12T08:24:32;20.80;99.90
26270;DHT22;15937;50.612;6.656;2023-08-12T08:28:34;20.80;99.90
26270;DHT22;15937;50.612;6.656;2023-08-12T08:32:36;21.00;99.90
26270;DHT22;15937;50.612;6.656;2023-08-12T08:36:39;21.10;99.90
26270;DHT22;15937;50.612;6.656;2023-08-12T08:40:43;21.30;99.90
26270;DHT22;15937;50.612;6.656;2023-08-12T08:44:45;21.40;99.90
26270;DHT22;15937;50.612;6.656;2023-08-12T08:48:51;21.30;99.90
26270;DHT22;15937;50.612;6.656;2023-08-12T08:52:53;21.20;99.90
26270;DHT22;15937;50.612;6.656;2023-08-12T08:56:57;21.20;99.90
26270;DHT22;15937;50.612;6.656;2023-08-12T09:01:11;21.40;99.90
26270;DHT22;15937;50.612;6.656;2023-08-12T09:05:15;21.60;99.90
26270;DHT22;15937;50.612;6.656;2023-08-12T09:09:19;21.50;99.90
26270;DHT22;15937;50.612;6.656;2023-08-12T09:13:22;21.60;99.90
26270;DHT22;15937;50.612;6.656;2023-08-12T09:17:23;21.70;99.90
26270;DHT22;15937;50.612;6.656;2023-08-12T09:21:25;21.80;99.90
26270;DHT22;15937;50.612;6.656;2023-08-12T09:25:27;21.80;99.90
26270;DHT22;15937;50.612;6.656;2023-08-12T09:29:35;22.00;99.90
26270;DHT22;15937;50.612;6.656;2023-08-12T09:33:40;22.50;99.90
26270;DHT22;15937;50.612;6.656;2023-08-12T09:37:42;22.50;99.90
26270;DHT22;15937;50.612;6.656;2023-08-12T09:41:44;22.30;99.90
26270;DHT22;15937;50.612;6.656;2023-08-12T09:45:46;21.90;99.90
26270;DHT22;15937;50.612;6.656;2023-08-12T09:49:48;22.10;99.90
26270;DHT22;15937;50.612;6.656;2023-08-12T09:53:51;22.40;99.90
26270;DHT22;15937;50.612;6.656;2023-08-12T09:57:54;22.40;99.90
26270;DHT22;15937;50.612;6.656;2023-08-12T10:01:57;22.30;99.90
26270;DHT22;15937;50.612;6.656;2023-08-12T10:05:59;22.40;99.90
26270;DHT22;15937;50.612;6.656;2023-08-12T10:10:01;22.50;99.90
26270;DHT22;15937;50.612;6.656;2023-08-12T10:14:04;22.30;99.90
26270;DHT22;15937;50.612;6.656;2023-08-12T10:18:06;22.60;99.90
26270;DHT22;15937;50.612;6.656;2023-08-12T10:22:12;22.80;99.90
26270;DHT22;15937;50.612;6.656;2023-08-12T10:26:17;23.10;99.90
26270;DHT22;15937;50.612;6.656;2023-08-12T10:30:20;23.00;99.90
26270;DHT22;15937;50.612;6.656;2023-08-12T10:34:23;23.20;99.90
26270;DHT22;15937;50.612;6.656;2023-08-12T10:38:25;23.00;99.90
26270;DHT22;15937;50.612;6.656;2023-08-12T10:42:45;22.60;99.90
26270;DHT22;15937;50.612;6.656;2023-08-12T10:46:50;22.90;99.90
26270;DHT22;15937;50.612;6.656;2023-08-12T10:50:55;22.80;99.90
26270;DHT22;15937;50.612;6.656;2023-08-12T10:55:16;22.80;99.90
26270;DHT22;15937;50.612;6.656;2023-08-12T11:03:47;22.50;99.90
26270;DHT22;15937;50.612;6.656;2023-08-12T11:07:59;22.40;99.90
26270;DHT22;15937;50.612;6.656;2023-08-12T11:12:08;22.60;99.90
26270;DHT22;15937;50.612;6.656;2023-08-12T11:16:11;22.60;99.90
26270;DHT22;15937;50.612;6.656;2023-08-12T11:20:13;23.00;99.90
26270;DHT22;15937;50.612;6.656;2023-08-12T11:24:15;22.80;99.90
26270;DHT22;15937;50.612;6.656;2023-08-12T11:28:18;23.00;99.90
26270;DHT22;15937;50.612;6.656;2023-08-12T11:32:23;23.30;99.90
26270;DHT22;15937;50.612;6.656;2023-08-12T11:36:25;23.30;99.90
26270;DHT22;15937;50.612;6.656;2023-08-12T11:40:27;23.50;99.90
26270;DHT22;15937;50.612;6.656;2023-08-12T11:44:31;23.60;99.90
26270;DHT22;15937;50.612;6.656;2023-08-12T11:48:33;23.80;99.90
26270;DHT22;15937;50.612;6.656;2023-08-12T11:52:35;24.10;99.90
26270;DHT22;15937;50.612;6.656;2023-08-12T11:56:37;24.50;99.90
26270;DHT22;15937;50.612;6.656;2023-08-12T12:00:39;24.30;99.90
26270;DHT22;15937;50.612;6.656;2023-08-12T12:04:44;24.20;99.90
26270;DHT22;15937;50.612;6.656;2023-08-12T12:08:45;24.50;99.90
26270;DHT22;15937;50.612;6.656;2023-08-12T12:12:48;24.40;99.90
26270;DHT22;15937;50.612;6.656;2023-08-12T12:16:49;24.40;99.90
26270;DHT22;15937;50.612;6.656;2023-08-12T12:20:58;24.60;99.90
26270;DHT22;15937;50.612;6.656;2023-08-12T12:25:10;24.20;99.90
26270;DHT22;15937;50.612;6.656;2023-08-12T12:29:12;24.40;99.90
26270;DHT22;15937;50.612;6.656;2023-08-12T12:33:15;24.30;99.90
26270;DHT22;15937;50.612;6.656;2023-08-12T12:37:16;24.40;99.90
26270;DHT22;15937;50.612;6.656;2023-08-12T12:41:20;24.40;99.90
26270;DHT22;15937;50.612;6.656;2023-08-12T12:45:22;24.10;99.90
26270;DHT22;15937;50.612;6.656;2023-08-12T12:49:23;24.80;99.90
26270;DHT22;15937;50.612;6.656;2023-08-12T12:53:25;25.00;99.90
26270;DHT22;15937;50.612;6.656;2023-08-12T12:57:27;24.80;99.90
26270;DHT22;15937;50.612;6.656;2023-08-12T13:01:32;25.00;99.90
26270;DHT22;15937;50.612;6.656;2023-08-12T13:05:34;24.70;99.90
26270;DHT22;15937;50.612;6.656;2023-08-12T13:09:36;24.70;99.90
26270;DHT22;15937;50.612;6.656;2023-08-12T13:13:39;25.20;99.90
26270;DHT22;15937;50.612;6.656;2023-08-12T13:17:41;25.40;99.90
26270;DHT22;15937;50.612;6.656;2023-08-12T13:21:43;25.20;99.90
26270;DHT22;15937;50.612;6.656;2023-08-12T13:25:44;24.90;99.90
26270;DHT22;15937;50.612;6.656;2023-08-12T13:29:46;24.90;99.90
26270;DHT22;15937;50.612;6.656;2023-08-12T13:33:49;24.90;99.90
26270;DHT22;15937;50.612;6.656;2023-08-12T13:37:51;23.90;99.90
26270;DHT22;15937;50.612;6.656;2023-08-12T13:41:53;23.00;99.90
26270;DHT22;15937;50.612;6.656;2023-08-12T13:45:56;22.80;99.90
26270;DHT22;15937;50.612;6.656;2023-08-12T13:49:58;22.90;99.90
26270;DHT22;15937;50.612;6.656;2023-08-12T13:54:00;22.80;99.90
26270;DHT22;15937;50.612;6.656;2023-08-12T13:58:01;22.60;99.90
26270;DHT22;15937;50.612;6.656;2023-08-12T14:02:03;22.60;99.90
26270;DHT22;15937;50.612;6.656;2023-08-12T14:06:05;22.40;99.90
26270;DHT22;15937;50.612;6.656;2023-08-12T14:10:07;22.30;99.90
26270;DHT22;15937;50.612;6.656;2023-08-12T14:14:09;22.20;99.90
26270;DHT22;15937;50.612;6.656;2023-08-12T14:18:11;22.10;99.90
26270;DHT22;15937;50.612;6.656;2023-08-12T14:22:13;22.30;99.90
26270;DHT22;15937;50.612;6.656;2023-08-12T14:26:15;22.40;99.90
26270;DHT22;15937;50.612;6.656;2023-08-12T14:30:23;23.00;99.90
26270;DHT22;15937;50.612;6.656;2023-08-12T14:34:27;23.30;99.90
26270;DHT22;15937;50.612;6.656;2023-08-12T14:38:29;23.40;99.90
26270;DHT22;15937;50.612;6.656;2023-08-12T14:42:31;23.20;99.90
26270;DHT22;15937;50.612;6.656;2023-08-12T14:46:38;23.60;99.90
26270;DHT22;15937;50.612;6.656;2023-08-12T14:50:57;23.70;99.90
26270;DHT22;15937;50.612;6.656;2023-08-12T14:55:09;23.50;99.90
26270;DHT22;15937;50.612;6.656;2023-08-12T14:59:11;23.60;99.90
26270;DHT22;15937;50.612;6.656;2023-08-12T15:03:12;23.50;99.90
26270;DHT22;15937;50.612;6.656;2023-08-12T15:07:16;23.50;99.90
26270;DHT22;15937;50.612;6.656;2023-08-12T15:11:20;23.50;99.90
26270;DHT22;15937;50.612;6.656;2023-08-12T15:15:22;23.10;99.90
26270;DHT22;15937;50.612;6.656;2023-08-12T15:19:23;23.10;99.90
26270;DHT22;15937;50.612;6.656;2023-08-12T15:23:25;23.10;99.90
26270;DHT22;15937;50.612;6.656;2023-08-12T15:27:27;23.20;99.90
26270;DHT22;15937;50.612;6.656;2023-08-12T15:31:29;23.30;99.90
26270;DHT22;15937;50.612;6.656;2023-08-12T15:35:31;23.30;99.90
26270;DHT22;15937;50.612;6.656;2023-08-12T15:39:33;23.50;99.90
26270;DHT22;15937;50.612;6.656;2023-08-12T15:43:35;23.30;99.90
26270;DHT22;15937;50.612;6.656;2023-08-12T15:47:37;23.30;99.90
26270;DHT22;15937;50.612;6.656;2023-08-12T15:51:39;23.10;99.90
26270;DHT22;15937;50.612;6.656;2023-08-12T15:55:41;23.10;99.90
26270;DHT22;15937;50.612;6.656;2023-08-12T15:59:43;22.80;99.90
26270;DHT22;15937;50.612;6.656;2023-08-12T16:03:46;22.60;99.90
26270;DHT22;15937;50.612;6.656;2023-08-12T16:07:48;22.80;99.90
26270;DHT22;15937;50.612;6.656;2023-08-12T16:11:50;23.00;99.90
26270;DHT22;15937;50.612;6.656;2023-08-12T16:15:51;22.80;99.90
26270;DHT22;15937;50.612;6.656;2023-08-12T16:19:53;23.10;99.90
26270;DHT22;15937;50.612;6.656;2023-08-12T16:23:55;23.20;99.90
26270;DHT22;15937;50.612;6.656;2023-08-12T16:27:57;23.30;99.90
26270;DHT22;15937;50.612;6.656;2023-08-12T16:31:58;23.10;99.90
26270;DHT22;15937;50.612;6.656;2023-08-12T16:36:00;23.70;99.90
26270;DHT22;15937;50.612;6.656;2023-08-12T16:40:02;23.80;99.90
26270;DHT22;15937;50.612;6.656;2023-08-12T16:44:06;24.10;99.90
26270;DHT22;15937;50.612;6.656;2023-08-12T16:48:07;23.50;99.90
26270;DHT22;15937;50.612;6.656;2023-08-12T16:52:09;23.30;99.90
26270;DHT22;15937;50.612;6.656;2023-08-12T16:56:12;23.50;99.90
26270;DHT22;15937;50.612;6.656;2023-08-12T17:00:14;23.20;99.90
26270;DHT22;15937;50.612;6.656;2023-08-12T17:04:17;23.20;99.90
26270;DHT22;15937;50.612;6.656;2023-08-12T17:08:18;23.00;99.90
26270;DHT22;15937;50.612;6.656;2023-08-12T17:12:20;23.10;99.90
26270;DHT22;15937;50.612;6.656;2023-08-12T17:16:22;23.50;99.90
26270;DHT22;15937;50.612;6.656;2023-08-12T17:20:24;23.40;99.90
26270;DHT22;15937;50.612;6.656;2023-08-12T17:24:27;23.20;99.90
26270;DHT22;15937;50.612;6.656;2023-08-12T17:28:30;23.80;99.90
26270;DHT22;15937;50.612;6.656;2023-08-12T17:32:32;23.10;99.90
26270;DHT22;15937;50.612;6.656;2023-08-12T17:36:34;22.80;99.90
26270;DHT22;15937;50.612;6.656;2023-08-12T17:40:36;22.70;99.90
26270;DHT22;15937;50.612;6.656;2023-08-12T17:44:37;22.50;99.90
26270;DHT22;15937;50.612;6.656;2023-08-12T17:48:39;22.70;99.90
26270;DHT22;15937;50.612;6.656;2023-08-12T17:52:41;22.80;99.90
26270;DHT22;15937;50.612;6.656;2023-08-12T17:56:43;22.60;99.90
26270;DHT22;15937;50.612;6.656;2023-08-12T18:00:45;23.00;99.90
26270;DHT22;15937;50.612;6.656;2023-08-12T18:04:47;22.80;99.90
26270;DHT22;15937;50.612;6.656;2023-08-12T18:08:48;22.60;99.90
26270;DHT22;15937;50.612;6.656;2023-08-12T18:12:50;22.30;99.90
26270;DHT22;15937;50.612;6.656;2023-08-12T18:16:52;22.30;99.90
26270;DHT22;15937;50.612;6.656;2023-08-12T18:20:57;22.30;99.90
26270;DHT22;15937;50.612;6.656;2023-08-12T18:24:59;22.10;99.90
26270;DHT22;15937;50.612;6.656;2023-08-12T18:29:02;22.10;99.90
26270;DHT22;15937;50.612;6.656;2023-08-12T18:33:04;22.00;99.90
26270;DHT22;15937;50.612;6.656;2023-08-12T18:37:07;22.00;99.90
26270;DHT22;15937;50.612;6.656;2023-08-12T18:41:11;22.20;99.90
26270;DHT22;15937;50.612;6.656;2023-08-12T18:45:13;22.10;99.90
26270;DHT22;15937;50.612;6.656;2023-08-12T18:49:15;22.10;99.90
26270;DHT22;15937;50.612;6.656;2023-08-12T18:53:16;22.10;99.90
26270;DHT22;15937;50.612;6.656;2023-08-12T18:57:18;22.10;99.90
26270;DHT22;15937;50.612;6.656;2023-08-12T19:01:21;22.00;99.90
26270;DHT22;15937;50.612;6.656;2023-08-12T19:05:23;21.90;99.90
26270;DHT22;15937;50.612;6.656;2023-08-12T19:09:25;21.80;99.90
26270;DHT22;15937;50.612;6.656;2023-08-12T19:13:28;21.70;99.90
26270;DHT22;15937;50.612;6.656;2023-08-12T19:17:29;21.60;99.90
26270;DHT22;15937;50.612;6.656;2023-08-12T19:21:31;21.30;99.90
26270;DHT22;15937;50.612;6.656;2023-08-12T19:25:33;21.20;99.90
26270;DHT22;15937;50.612;6.656;2023-08-12T19:29:35;21.40;99.90
26270;DHT22;15937;50.612;6.656;2023-08-12T19:33:37;21.30;99.90
26270;DHT22;15937;50.612;6.656;2023-08-12T19:37:38;21.10;99.90
26270;DHT22;15937;50.612;6.656;2023-08-12T19:41:40;20.30;99.90
26270;DHT22;15937;50.612;6.656;2023-08-12T19:45:42;20.00;99.90
26270;DHT22;15937;50.612;6.656;2023-08-12T19:49:44;19.70;99.90
26270;DHT22;15937;50.612;6.656;2023-08-12T19:53:51;19.90;99.90
26270;DHT22;15937;50.612;6.656;2023-08-12T19:58:17;19.60;99.90
26270;DHT22;15937;50.612;6.656;2023-08-12T20:02:19;19.70;99.90
26270;DHT22;15937;50.612;6.656;2023-08-12T20:06:38;19.80;99.90
26270;DHT22;15937;50.612;6.656;2023-08-12T20:10:40;19.50;99.90
26270;DHT22;15937;50.612;6.656;2023-08-12T20:14:42;19.70;99.90
26270;DHT22;15937;50.612;6.656;2023-08-12T20:18:44;19.50;99.90
26270;DHT22;15937;50.612;6.656;2023-08-12T20:22:46;19.50;99.90
26270;DHT22;15937;50.612;6.656;2023-08-12T20:27:06;19.10;99.90
26270;DHT22;15937;50.612;6.656;2023-08-12T20:31:08;18.90;99.90
26270;DHT22;15937;50.612;6.656;2023-08-12T20:35:09;19.10;99.90
26270;DHT22;15937;50.612;6.656;2023-08-12T20:39:11;19.20;99.90
26270;DHT22;15937;50.612;6.656;2023-08-12T20:43:13;19.20;99.90
26270;DHT22;15937;50.612;6.656;2023-08-12T20:47:15;18.90;99.90
26270;DHT22;15937;50.612;6.656;2023-08-12T20:51:17;19.00;99.90
26270;DHT22;15937;50.612;6.656;2023-08-12T20:55:19;18.90;99.90
26270;DHT22;15937;50.612;6.656;2023-08-12T20:59:21;18.70;99.90
26270;DHT22;15937;50.612;6.656;2023-08-12T21:03:23;18.90;99.90
26270;DHT22;15937;50.612;6.656;2023-08-12T21:07:25;19.00;99.90
26270;DHT22;15937;50.612;6.656;2023-08-12T21:11:27;18.90;99.90
26270;DHT22;15937;50.612;6.656;2023-08-12T21:15:29;19.00;99.90
26270;DHT22;15937;50.612;6.656;2023-08-12T21:19:30;18.90;99.90
26270;DHT22;15937;50.612;6.656;2023-08-12T21:23:32;18.90;99.90
26270;DHT22;15937;50.612;6.656;2023-08-12T21:27:34;18.80;99.90
26270;DHT22;15937;50.612;6.656;2023-08-12T21:31:36;18.90;99.90
26270;DHT22;15937;50.612;6.656;2023-08-12T21:35:38;18.70;99.90
26270;DHT22;15937;50.612;6.656;2023-08-12T21:39:41;18.50;99.90
26270;DHT22;15937;50.612;6.656;2023-08-12T21:43:42;18.50;99.90
26270;DHT22;15937;50.612;6.656;2023-08-12T21:47:44;18.60;99.90
26270;DHT22;15937;50.612;6.656;2023-08-12T21:51:47;18.50;99.90
26270;DHT22;15937;50.612;6.656;2023-08-12T21:55:48;18.50;99.90
26270;DHT22;15937;50.612;6.656;2023-08-12T21:59:51;18.20;99.90
26270;DHT22;15937;50.612;6.656;2023-08-12T22:03:52;18.50;99.90
26270;DHT22;15937;50.612;6.656;2023-08-12T22:07:54;18.10;99.90
26270;DHT22;15937;50.612;6.656;2023-08-12T22:11:56;18.40;99.90
26270;DHT22;15937;50.612;6.656;2023-08-12T22:15:58;18.30;99.90
26270;DHT22;15937;50.612;6.656;2023-08-12T22:20:00;18.30;99.90
26270;DHT22;15937;50.612;6.656;2023-08-12T22:24:01;18.30;99.90
26270;DHT22;15937;50.612;6.656;2023-08-12T22:28:03;18.60;99.90
26270;DHT22;15937;50.612;6.656;2023-08-12T22:32:05;18.70;99.90
26270;DHT22;15937;50.612;6.656;2023-08-12T22:36:07;18.70;99.90
26270;DHT22;15937;50.612;6.656;2023-08-12T22:40:10;18.70;99.90
26270;DHT22;15937;50.612;6.656;2023-08-12T22:44:12;18.60;99.90
26270;DHT22;15937;50.612;6.656;2023-08-12T22:48:13;18.60;99.90
26270;DHT22;15937;50.612;6.656;2023-08-12T22:52:15;18.60;99.90
26270;DHT22;15937;50.612;6.656;2023-08-12T22:56:17;18.80;99.90
26270;DHT22;15937;50.612;6.656;2023-08-12T23:00:19;18.50;99.90
26270;DHT22;15937;50.612;6.656;2023-08-12T23:04:21;18.60;99.90
26270;DHT22;15937;50.612;6.656;2023-08-12T23:08:22;18.60;99.90
26270;DHT22;15937;50.612;6.656;2023-08-12T23:12:26;18.60;99.90
26270;DHT22;15937;50.612;6.656;2023-08-12T23:16:28;18.60;99.90
26270;DHT22;15937;50.612;6.656;2023-08-12T23:20:31;18.50;99.90
26270;DHT22;15937;50.612;6.656;2023-08-12T23:24:32;18.50;99.90
26270;DHT22;15937;50.612;6.656;2023-08-12T23:28:34;18.60;99.90
26270;DHT22;15937;50.612;6.656;2023-08-12T23:32:36;18.50;99.90
26270;DHT22;15937;50.612;6.656;2023-08-12T23:36:39;18.30;99.90
26270;DHT22;15937;50.612;6.656;2023-08-12T23:40:40;18.30;99.90
26270;DHT22;15937;50.612;6.656;2023-08-12T23:44:42;18.30;99.90
26270;DHT22;15937;50.612;6.656;2023-08-12T23:48:44;18.40;99.90
26270;DHT22;15937;50.612;6.656;2023-08-12T23:52:46;18.30;99.90
26270;DHT22;15937;50.612;6.656;2023-08-12T23:56:47;18.40;99.90
